Salida, California
Current Conditions -  °F | °C
As of 3:53 PM on Thursday 27 Nov 2014 (Local Time) from KMOD Reporting Station
Haze Haze  
Wind Chill: 68°   Ceiling: Unl
Heat Index: 68°   Visibility: 4mi
Dew Point: 46°   Wind: 3mph
Humidity: 45%   Direction: 310°NW
Pressure: 30.07"   Gusts: NA
Location:  37.71°N, 121.09°W
Report Text: KMOD 272353Z 31003KT 4SM HZ CLR 20/08 A3007 RMK AO2 SLP183 T02000078 10206 20133 56015
Loading
Personal Weather Stations






























Interactive Weather Map New forecast layout! Learn more

10-Day Weather Forecast

Advertisements
Track Severe Weather on mobile